sensor_id;sensor_type;location;lat;lon;timestamp;temperature;humidity
9949;DHT22;5013;51.840;8.276;2022-07-30T19:11:25;23.80;1.00
9949;DHT22;5013;51.840;8.276;2022-07-30T19:13:51;23.70;1.00
9949;DHT22;5013;51.840;8.276;2022-07-30T19:16:17;23.60;1.00
9949;DHT22;5013;51.840;8.276;2022-07-30T19:18:51;23.60;1.00
9949;DHT22;5013;51.840;8.276;2022-07-30T19:21:17;23.50;1.00
9949;DHT22;5013;51.840;8.276;2022-07-30T19:23:42;23.40;1.00
9949;DHT22;5013;51.840;8.276;2022-07-30T19:26:08;23.30;1.00
9949;DHT22;5013;51.840;8.276;2022-07-30T19:28:34;23.30;1.00
9949;DHT22;5013;51.840;8.276;2022-07-30T19:31:00;23.20;1.00
9949;DHT22;5013;51.840;8.276;2022-07-30T19:33:26;23.20;1.00
9949;DHT22;5013;51.840;8.276;2022-07-30T19:35:52;23.10;1.00
9949;DHT22;5013;51.840;8.276;2022-07-30T19:38:17;23.00;1.00
9949;DHT22;5013;51.840;8.276;2022-07-30T19:40:43;23.00;1.00
9949;DHT22;5013;51.840;8.276;2022-07-30T19:43:09;23.00;1.00
9949;DHT22;5013;51.840;8.276;2022-07-30T19:48:47;22.80;1.00
9949;DHT22;5013;51.840;8.276;2022-07-30T19:51:13;22.80;1.00
9949;DHT22;5013;51.840;8.276;2022-07-30T19:53:39;22.70;1.00
9949;DHT22;5013;51.840;8.276;2022-07-30T19:56:05;22.70;1.00
9949;DHT22;5013;51.840;8.276;2022-07-30T19:58:33;22.60;1.00
9949;DHT22;5013;51.840;8.276;2022-07-30T20:01:00;22.50;1.00
9949;DHT22;5013;51.840;8.276;2022-07-30T20:03:26;22.50;1.00
9949;DHT22;5013;51.840;8.276;2022-07-30T20:05:52;22.30;1.00
9949;DHT22;5013;51.840;8.276;2022-07-30T20:08:18;22.30;1.00
9949;DHT22;5013;51.840;8.276;2022-07-30T20:10:44;22.30;1.00
9949;DHT22;5013;51.840;8.276;2022-07-30T20:13:10;22.20;1.00
9949;DHT22;5013;51.840;8.276;2022-07-30T20:15:38;22.10;1.00
9949;DHT22;5013;51.840;8.276;2022-07-30T20:18:04;22.10;1.00
9949;DHT22;5013;51.840;8.276;2022-07-30T20:20:29;22.00;1.00
9949;DHT22;5013;51.840;8.276;2022-07-30T20:22:55;22.00;1.00
9949;DHT22;5013;51.840;8.276;2022-07-30T20:25:21;22.00;1.00
9949;DHT22;5013;51.840;8.276;2022-07-30T20:27:46;22.00;1.00
9949;DHT22;5013;51.840;8.276;2022-07-30T20:30:12;22.00;1.00
9949;DHT22;5013;51.840;8.276;2022-07-30T20:32:38;22.00;1.00
9949;DHT22;5013;51.840;8.276;2022-07-30T20:35:08;22.00;1.00
9949;DHT22;5013;51.840;8.276;2022-07-30T20:37:34;21.90;1.00
9949;DHT22;5013;51.840;8.276;2022-07-30T20:40:01;21.80;1.00
9949;DHT22;5013;51.840;8.276;2022-07-30T20:42:27;21.80;1.00
9949;DHT22;5013;51.840;8.276;2022-07-30T20:44:52;21.80;1.00
9949;DHT22;5013;51.840;8.276;2022-07-30T20:47:18;21.70;1.00
9949;DHT22;5013;51.840;8.276;2022-07-30T20:49:47;21.70;1.00
9949;DHT22;5013;51.840;8.276;2022-07-30T20:52:14;21.70;1.00
9949;DHT22;5013;51.840;8.276;2022-07-30T20:54:40;21.60;1.00
9949;DHT22;5013;51.840;8.276;2022-07-30T20:57:07;21.50;1.00
9949;DHT22;5013;51.840;8.276;2022-07-30T20:59:36;21.50;1.00
9949;DHT22;5013;51.840;8.276;2022-07-30T21:02:06;21.50;6.50
9949;DHT22;5013;51.840;8.276;2022-07-30T21:04:32;21.40;5.70
9949;DHT22;5013;51.840;8.276;2022-07-30T21:06:57;21.40;32.10
9949;DHT22;5013;51.840;8.276;2022-07-30T21:09:24;21.30;42.90
9949;DHT22;5013;51.840;8.276;2022-07-30T21:11:50;21.20;51.70
9949;DHT22;5013;51.840;8.276;2022-07-30T21:14:19;21.30;36.70
9949;DHT22;5013;51.840;8.276;2022-07-30T21:16:46;21.20;5.70
9949;DHT22;5013;51.840;8.276;2022-07-30T21:19:11;21.10;16.20
9949;DHT22;5013;51.840;8.276;2022-07-30T21:21:44;21.10;50.20
9949;DHT22;5013;51.840;8.276;2022-07-30T21:24:12;21.20;95.60
9949;DHT22;5013;51.840;8.276;2022-07-30T21:26:41;21.20;90.80
9949;DHT22;5013;51.840;8.276;2022-07-30T21:29:08;21.10;62.60
9949;DHT22;5013;51.840;8.276;2022-07-30T21:31:34;21.20;32.30
9949;DHT22;5013;51.840;8.276;2022-07-30T21:34:00;21.10;13.90
9949;DHT22;5013;51.840;8.276;2022-07-30T21:36:25;21.10;34.10
9949;DHT22;5013;51.840;8.276;2022-07-30T21:38:51;21.10;23.80
9949;DHT22;5013;51.840;8.276;2022-07-30T21:41:17;21.10;14.60
9949;DHT22;5013;51.840;8.276;2022-07-30T21:43:45;21.10;9.40
9949;DHT22;5013;51.840;8.276;2022-07-30T21:46:11;21.10;14.50
9949;DHT22;5013;51.840;8.276;2022-07-30T21:48:38;21.10;15.50
9949;DHT22;5013;51.840;8.276;2022-07-30T21:51:04;21.10;19.20
9949;DHT22;5013;51.840;8.276;2022-07-30T21:53:30;21.10;23.20
9949;DHT22;5013;51.840;8.276;2022-07-30T21:55:56;21.10;21.60
9949;DHT22;5013;51.840;8.276;2022-07-30T21:58:22;21.00;30.10
9949;DHT22;5013;51.840;8.276;2022-07-30T22:03:17;21.10;41.30
9949;DHT22;5013;51.840;8.276;2022-07-30T22:05:44;21.00;50.20
9949;DHT22;5013;51.840;8.276;2022-07-30T22:08:11;21.10;48.70
9949;DHT22;5013;51.840;8.276;2022-07-30T22:10:39;21.10;63.90
9949;DHT22;5013;51.840;8.276;2022-07-30T22:13:05;21.10;69.20
9949;DHT22;5013;51.840;8.276;2022-07-30T22:15:31;21.10;48.00
9949;DHT22;5013;51.840;8.276;2022-07-30T22:17:58;21.10;49.00
9949;DHT22;5013;51.840;8.276;2022-07-30T22:20:24;21.10;90.50
9949;DHT22;5013;51.840;8.276;2022-07-30T22:22:53;21.10;91.60
9949;DHT22;5013;51.840;8.276;2022-07-30T22:25:18;21.10;99.90
9949;DHT22;5013;51.840;8.276;2022-07-30T22:27:44;21.00;99.90
9949;DHT22;5013;51.840;8.276;2022-07-30T22:30:11;21.00;99.90
9949;DHT22;5013;51.840;8.276;2022-07-30T22:32:37;21.00;99.90
9949;DHT22;5013;51.840;8.276;2022-07-30T22:35:05;21.00;99.90
9949;DHT22;5013;51.840;8.276;2022-07-30T22:37:30;21.00;99.90
9949;DHT22;5013;51.840;8.276;2022-07-30T22:39:56;21.00;99.90
9949;DHT22;5013;51.840;8.276;2022-07-30T22:42:24;21.00;99.90
9949;DHT22;5013;51.840;8.276;2022-07-30T22:44:50;20.90;99.90
9949;DHT22;5013;51.840;8.276;2022-07-30T22:47:16;20.90;99.90
9949;DHT22;5013;51.840;8.276;2022-07-30T22:49:42;20.90;99.90
9949;DHT22;5013;51.840;8.276;2022-07-30T22:52:08;20.90;99.90
9949;DHT22;5013;51.840;8.276;2022-07-30T22:54:33;21.00;99.90
9949;DHT22;5013;51.840;8.276;2022-07-30T22:56:59;21.10;99.90
9949;DHT22;5013;51.840;8.276;2022-07-30T22:59:25;21.10;1.00
9949;DHT22;5013;51.840;8.276;2022-07-30T23:01:51;21.00;1.00
9949;DHT22;5013;51.840;8.276;2022-07-30T23:04:17;21.00;1.00
9949;DHT22;5013;51.840;8.276;2022-07-30T23:06:44;21.00;1.00
9949;DHT22;5013;51.840;8.276;2022-07-30T23:09:10;20.90;1.00
9949;DHT22;5013;51.840;8.276;2022-07-30T23:11:36;21.00;1.00
9949;DHT22;5013;51.840;8.276;2022-07-30T23:14:06;21.00;1.00
9949;DHT22;5013;51.840;8.276;2022-07-30T23:16:33;21.10;1.00
9949;DHT22;5013;51.840;8.276;2022-07-30T23:18:59;21.10;1.00
9949;DHT22;5013;51.840;8.276;2022-07-30T23:21:25;21.10;1.00
9949;DHT22;5013;51.840;8.276;2022-07-30T23:23:51;21.00;1.00
9949;DHT22;5013;51.840;8.276;2022-07-30T23:26:16;20.70;1.00
9949;DHT22;5013;51.840;8.276;2022-07-30T23:28:42;20.60;1.00
9949;DHT22;5013;51.840;8.276;2022-07-30T23:31:09;20.60;1.00
9949;DHT22;5013;51.840;8.276;2022-07-30T23:33:34;20.60;1.00
9949;DHT22;5013;51.840;8.276;2022-07-30T23:36:02;20.70;1.00
9949;DHT22;5013;51.840;8.276;2022-07-30T23:38:28;20.60;1.00
9949;DHT22;5013;51.840;8.276;2022-07-30T23:40:54;20.60;1.00
9949;DHT22;5013;51.840;8.276;2022-07-30T23:43:25;20.50;1.00
9949;DHT22;5013;51.840;8.276;2022-07-30T23:45:51;20.40;1.00
9949;DHT22;5013;51.840;8.276;2022-07-30T23:48:17;20.50;1.00
9949;DHT22;5013;51.840;8.276;2022-07-30T23:50:43;20.50;1.00
9949;DHT22;5013;51.840;8.276;2022-07-30T23:53:09;20.40;1.00
9949;DHT22;5013;51.840;8.276;2022-07-30T23:55:35;20.40;1.00
9949;DHT22;5013;51.840;8.276;2022-07-30T23:58:02;20.40;1.00
